Whale Point, California Weather observations

Data are for observation ending at time listed.
 Day   Time    Ave.   Ave.  Ave.  Vector   Max.   Stn.    Total    Solar   Ave.  
  of    of     Air    Rel.  Wind   Wind    Wind   Baro.  Precip.   Rad.    Soil  
Year   Day     Temp.  Hum.  Speed  Dir.    Gust   Pres.                    Temp. 
2026   (PST)    F      %     mph   deg.    mph     mb.     in.     W/m2     F   
------------------------------------------------------------------------------
 125   20:40   52.8    88    1.2   122      2.2   995.7    0.00    2798    66.6
 125   20:50   52.8    89    1.0   117      1.7   995.7    0.00    2853    66.5
 125   21:00   52.6    89    1.1    58      2.3   995.8    0.00    2872    66.5
 125   21:10   52.4    89    1.4    40      2.9   996.0    0.00    2899    66.4
 125   21:20   52.4    89    0.4    97      1.5   996.0    0.00    2981    66.3
 125   21:30   52.2    89    2.1    57      5.3   996.0    0.00    3019    66.3
 125   21:40   52.4    88    2.5    76      5.0   996.0    0.00    3038    66.2
 125   21:50   53.0    85    0.7   104      2.1   996.1    0.00    3061    66.1
 125   22:00   53.3    84    1.6    55      3.1   996.2    0.00    3009    66.1
 125   22:10   53.8    83    1.0    96      2.7   996.2    0.00    3009    66.0
 125   22:20   53.9    82    0.5   105      2.2   996.3    0.00    3005    66.0
 125   22:30   53.7    82    0.4   133      1.1   996.3    0.00    2985    65.9
 125   22:40   53.3    84    0.3   119      1.3   996.5    0.00    2963    65.9
 125   22:50   53.3    86    1.2    84      2.0   996.5    0.00    2958    65.8
 125   23:00   53.5    85    0.7    45      1.4   996.5    0.00    2940    65.7
 125   23:10   53.4    83    1.2    32      2.6   996.6    0.00    2965    65.7
 125   23:20   53.4    84    0.6    76      1.6   996.7    0.00    2962    65.6
 125   23:30   53.7    83    0.5    86      2.3   996.7    0.00    2967    65.5
 125   23:40   53.9    82    0.5    92      1.6   996.8    0.00    2978    65.5
 125   23:50   54.0    82    1.0   150      2.2   997.0    0.00    2982    65.4
 126    0:00   53.5    83    0.3    97      1.5   997.0    0.00    2934    65.3
 126    0:10   53.3    83    0.4    90      2.9   997.0    0.00    2908    65.3
 126    0:20   53.7    80    2.8    85      6.0   996.9    0.00    2950    65.2
 126    0:30   54.1    76    3.8    88      6.5   996.8    0.00    2947    65.1
 126    0:40   53.4    80    0.9   128      2.9   996.9    0.00    2903    65.1
 126    0:50   52.6    83    1.5   160      2.9   996.9    0.00    2853    65.0
 126    1:00   52.4    87    1.4   191      3.4   997.0    0.00    2873    64.9
 126    1:10   52.4    89    1.5    44      3.1   997.0    0.00    2875    64.9
 126    1:20   52.4    90    2.3    88      4.8   996.9    0.00    2909    64.8
 126    1:30   52.7    89    2.1   109      4.2   996.8    0.00    2926    64.8
 126    1:40   52.8    88    0.6    85      1.4   996.9    0.00    2912    64.7
 126    1:50   52.6    87    2.2    80      3.9   996.8    0.00    2883    64.7
 126    2:00   52.8    86    1.6   116      3.5   996.8    0.00    2904    64.6
 126    2:10   52.8    86    1.7   138      2.8   996.9    0.00    2877    64.5
 126    2:20   52.1    86    1.7   122      2.6   997.0    0.00    2868    64.5
 126    2:30   52.8    87    1.5    85      3.0   996.9    0.00    2869    64.4
 126    2:40   53.2    85    2.8    90      4.7   996.8    0.00    2905    64.3
 126    2:50   53.7    82    1.4   107      2.9   996.8    0.00    2897    64.3
 126    3:00   53.1    83    2.3   126      4.1   996.8    0.00    2838    64.3
 126    3:10   52.6    85    1.5    76      4.8   996.9    0.00    2809    64.2
 126    3:20   53.2    82    3.0    87      5.7   996.8    0.00    2847    64.1
 126    3:30   52.9    82    1.5   170      2.6   996.8    0.00    2848    64.1
 126    3:40   52.2    86    2.0   144      3.6   996.8    0.00    2814    64.0
 126    3:50   51.9    87    0.7   133      2.5   996.9    0.00    2833    64.0
 126    4:00   51.5    88    1.2   128      2.5   996.9    0.00    2869    63.9
 126    4:10   51.8    90    1.6    83      2.1   997.0    0.00    2896    63.9
 126    4:20   52.4    88    1.2    73      3.6   997.1    0.00    2943    63.8
 126    4:30   52.8    86    2.1    73      4.2   997.2    0.00    2951    63.8
 126    4:40   52.7    85    2.0    72      4.1   997.1    0.00    2939    63.7
 126    4:50   53.1    83    1.1    69      3.1   997.2    0.00    2925    63.7
 126    5:00   53.1    82    1.0   124      2.6   997.2    0.00    2878    63.6
 126    5:10   53.5    80    1.1   104      2.4   997.3    0.00    2864    63.6
 126    5:20   53.8    80    0.7   115      1.9   997.4    0.00    2857    63.5
 126    5:30   53.9    80    0.5   169      1.7   997.5    0.00    2845    63.5
 126    5:40   53.4    82    0.6   134      1.6   997.6    0.00    2839    63.5
 126    5:50   53.2    82    0.9    22      2.3   997.6    0.00    2836    63.4
 126    6:00   53.2    82    0.3   346      1.8   997.7    0.00    2858    63.3
 126    6:10   53.2    81    0.4    59      1.8   997.8    0.00    2854    63.3
 126    6:20   53.2    80    1.4   154      2.7   997.9    0.00    2858    63.3
 126    6:30   52.8    83    1.6   167      2.6   998.0    0.00    2849    63.2
 126    6:40   52.7    84    1.1   151      1.8   998.0    0.00    2833    63.2
 126    6:50   52.9    84    1.6   152      2.7   998.1    0.00    2812    63.1
 126    7:00   53.2    85    1.7   134      3.1   998.1    0.00    2775    63.0
 126    7:10   55.0    83    1.4   156      2.6   998.2    0.00    2761    63.0
 126    7:20   59.1    73    1.8   138      3.8   998.2    0.00    2401    62.9
 126    7:30   60.2    69    1.8   167      3.1   998.2    0.00    1904    62.8
 126    7:40   61.2    68    2.0   167      3.1   998.3    0.00    1512    62.8
 126    7:50   60.7    67    1.6   217      2.9   998.3    0.00    1224    62.7
 126    8:00   59.8    70    2.5   197      3.7   998.3    0.00    1038    62.7
 126    8:10   59.8    70    3.1   189      4.6   998.2    0.00     881    62.7
 126    8:20   59.5    72    2.5   190      4.0   998.2    0.00     788    62.7
 126    8:30   60.2    71    2.9   179      4.3   998.3    0.00     691    62.8
 126    8:40   59.4    72    3.1   189      4.7   998.3    0.00     650    62.7
 126    8:50   58.5    75    3.0   196      5.0   998.4    0.00     650    62.7
 126    9:00   58.7    75    3.0   199      5.0   998.4    0.00     627    62.7
 126    9:10   57.9    78    3.7   205      5.4   998.4    0.00     661    62.7
 126    9:20   57.1    79    3.6   212      4.9   998.3    0.00     645    62.7
 126    9:30   57.7    78    3.8   212      5.8   998.3    0.00     626    62.7
 126    9:40   57.8    78    4.1   209      5.8   998.2    0.00     631    62.8
 126    9:50   58.1    78    4.2   202      6.5   998.3    0.00     637    62.8
 126   10:00   59.0    76    4.1   211      6.1   998.4    0.00     628    62.8
 126   10:10   59.1    76    4.6   215      7.1   998.5    0.00     641    62.8
 126   10:20   60.0    74    3.4   216      6.2   998.6    0.00     643    62.8
 126   10:30   61.6    69    3.0   224      5.4   998.6    0.00     575    62.8
 126   10:40   62.4    66    4.3   208      6.4   998.6    0.00     528    62.9
 126   10:50   62.1    70    4.3   206      6.6   998.6    0.00     559    62.9
 126   11:00   61.4    72    3.8   212      6.1   998.6    0.00     611    62.9
 126   11:10   61.1    73    5.0   219      7.2   998.5    0.00     648    62.9
 126   11:20   61.2    74    4.5   203      7.7   998.5    0.00     684    63.0
 126   11:30   60.6    76    4.7   218      8.4   998.4    0.00     758    63.0
 126   11:40   60.9    78    4.7   214      7.6   998.4    0.00     826    63.0
 126   11:50   60.8    76    5.2   220      8.2   998.3    0.00     841    63.1
 126   12:00   61.6    74    5.1   219      8.1   998.3    0.00     872    63.1
 126   12:10   60.7    74    4.7   225      6.9   998.2    0.00     920    63.2
 126   12:20   61.8    72    4.7   225      6.8   998.2    0.00     935    63.2
 126   12:30   62.4    72    5.1   218      7.4   998.2    0.00     955    63.3
 126   12:40   63.8    68    4.7   211      7.0   998.6    0.00     934    63.4
 126   12:50   63.3    65    4.5   224      8.4   998.6    0.00     884    63.5
 126   13:00   64.2    64    4.5   228      8.6   998.6    0.00     878    63.7
 126   13:10   65.3    62    4.9   228      7.7   998.3    0.00     871    63.8
 126   13:20   64.1    64    4.5   223      7.5   998.3    0.00     898    63.9
 126   13:30   64.5    65    4.7   230      8.2   998.3    0.00     916    64.1
 126   13:40   64.7    65    4.9   227      8.0   998.3    0.00     906    64.2
 126   13:50   64.2    64    4.9   228      7.7   998.3    0.00     879    64.4
 126   14:00   64.3    64    4.8   231      8.0   998.0    0.00     884    64.5
 126   14:10   64.9    65    4.3   233     10.0   998.0    0.00     882    64.7
 126   14:20   63.8    68    3.8   234      8.8   998.0    0.00     879    64.9
 126   14:30   64.1    67    4.1   237      8.2   997.6    0.00     848    65.1
 126   14:40   64.5    67    4.3   239      8.8   997.6    0.00     874    65.3
 126   14:50   63.3    67    4.6   230     10.0   997.6    0.00     832    65.5
 126   15:00   64.0    67    4.8   230      9.6   997.6    0.00     827    65.7
 126   15:10   65.0    66    3.4   227      8.2   997.3    0.00     798    65.9
 126   15:20   65.0    66    4.4   224      8.4   997.3    0.00     781    66.1
 126   15:30   63.9    68    4.0   228      8.2   997.3    0.00     785    66.3
 126   15:40   64.2    66    3.9   238      9.1   997.0    0.00     792    66.5
 126   15:50   64.3    67    3.1   250     10.9   997.0    0.00     832    66.7
 126   16:00   63.9    68    4.7   234     13.4   997.0    0.00     864    66.9
 126   16:10   64.3    68    2.1   249      7.7   997.3    0.00     883    67.1
 126   16:20   64.9    66    4.2   226      9.8   997.3    0.00     862    67.2
 126   16:30   63.2    70    4.9   222      9.8   997.3    0.00     940    67.4
 126   16:40   63.2    70    3.4   235      8.3   997.3    0.00     979    67.6
 126   16:50   63.1    70    3.0   245      7.8   997.3    0.00    1029    67.8
 126   17:00   63.8    69    2.5   239      6.2   997.3    0.00    1074    67.9
 126   17:10   62.8    70    2.8   251      5.6   997.3    0.00    1131    68.0
 126   17:20   63.5    69    1.9   239      5.2   997.3    0.00    1173    68.1
 126   17:30   64.4    67    2.0   243      5.8   997.3    0.00    1168    68.3
 126   17:40   63.8    68    2.0   246      5.8   997.3    0.00    1207    68.4
 126   17:50   63.2    69    1.7   255      6.6   997.3    0.00    1291    68.6
 126   18:00   61.6    72    1.9   270      5.2   997.3    0.00    1382    68.7
 126   18:10   60.8    74    2.0   284      5.8   997.3    0.00    1449    68.8
 126   18:20   59.5    77    1.8   273      4.7   997.3    0.00    1518    68.9
 126   18:30   57.8    82    2.2   284      7.3   997.0    0.00    1533    68.9
 126   18:40   56.8    84    1.2    17      3.2   997.0    0.00    1576    69.0
 126   18:50   56.3    86    0.6    96      1.7   997.0    0.00    1660    69.0
 126   19:00   55.3    88    1.3   189      3.2   997.0    0.00    1748    69.1
 126   19:10   54.7    91    1.4   155      4.3   997.3    0.00    1879    69.1
 126   19:20   54.0    92    2.7   151      6.2   997.3    0.00    1997    69.1
 126   19:30   53.5    92    2.8   155      6.6   997.3    0.00    2126    69.1
 126   19:40   53.2    93    1.9   191      4.5   997.3    0.00    2257    69.1
 126   19:50   53.0    93    2.3   182      4.3   997.3    0.00    2379    69.0
 126   20:00   52.9    93    1.6   212      4.8   997.3    0.00    2514    69.0
 126   20:10   52.8    93    1.4   107      3.6   997.6    0.00    2620    69.0
 126   20:20   52.6    94    0.7   133      1.6   997.6    0.00    2694    68.9
 126   20:30   52.5    94    1.3   158      2.6   997.6    0.00    2760    68.9

Return to Whale Point graphs page.


Western Regional Climate Center,wrcc@dri.edu